Time;durP1;ratioP1;P1;durP2;ratioP2;P2;SDS_P1;SDS_P2;PMS_P1;PMS_P2;Temp;Humidity;BMP_temperature;BMP_pressure;BME280_temperature;BME280_humidity;BME280_pressure;Samples;Min_cycle;Max_cycle;Signal;HPM_P1;HPM_P2
2023/10/14 00:03:20;;;;;;;;;;;;;;;17.28;100.00;97641.03;10168111;29;19930;-79
2023/10/14 00:08:21;;;;;;;;;;;;;;;17.27;100.00;97636.75;10156178;29;19975;-80
2023/10/14 00:13:22;;;;;;;;;;;;;;;17.33;100.00;97645.28;10161656;29;19927;-80
2023/10/14 00:18:24;;;;;;;;;;;;;;;17.40;100.00;97639.91;10163096;29;19977;-83
2023/10/14 00:23:26;;;;;;;;;;;;;;;17.49;100.00;97651.16;10167334;29;20406;-81
2023/10/14 00:28:29;;;;;;;;;;;;;;;17.54;100.00;97633.72;10149655;29;19926;-81
2023/10/14 00:33:35;;;;;;;;;;;;;;;17.51;100.00;97637.22;10142008;29;20448;-78
2023/10/14 00:38:35;;;;;;;;;;;;;;;17.41;100.00;97618.97;10161609;29;19958;-85
2023/10/14 00:43:36;;;;;;;;;;;;;;;17.46;100.00;97622.06;10158596;29;20038;-83
2023/10/14 00:48:40;;;;;;;;;;;;;;;17.59;100.00;97614.38;10125388;29;20383;-83
2023/10/14 00:53:52;;;;;;;;;;;;;;;17.72;100.00;97609.34;10130631;29;19946;-82
2023/10/14 00:58:57;;;;;;;;;;;;;;;17.58;100.00;97604.69;10147718;29;19927;-79
2023/10/14 01:04:21;;;;;;;;;;;;;;;17.63;100.00;97596.13;10178154;29;19947;-79
2023/10/14 01:09:32;;;;;;;;;;;;;;;17.53;100.00;97594.19;10168507;29;20537;-79
2023/10/14 01:14:33;;;;;;;;;;;;;;;17.44;100.00;97578.28;10172271;29;19930;-79
2023/10/14 01:19:34;;;;;;;;;;;;;;;17.37;100.00;97570.13;10186797;29;19977;-87
2023/10/14 01:24:39;;;;;;;;;;;;;;;17.38;100.00;97570.91;10170795;29;19987;-78
2023/10/14 01:29:44;;;;;;;;;;;;;;;17.32;100.00;97573.22;10206093;29;19922;-81
2023/10/14 01:34:46;;;;;;;;;;;;;;;17.28;100.00;97562.38;10199916;28;19918;-78
2023/10/14 01:39:49;;;;;;;;;;;;;;;17.28;100.00;97543.41;10230840;28;19911;-80
2023/10/14 01:44:53;;;;;;;;;;;;;;;17.27;100.00;97541.81;10185320;29;20430;-79
2023/10/14 01:49:53;;;;;;;;;;;;;;;17.34;100.00;97532.91;10149370;29;20100;-79
2023/10/14 01:54:55;;;;;;;;;;;;;;;17.55;100.00;97530.22;10156142;29;20008;-80
2023/10/14 01:59:56;;;;;;;;;;;;;;;17.74;99.57;97534.53;10156969;29;19927;-82
2023/10/14 02:04:57;;;;;;;;;;;;;;;17.87;98.27;97522.13;10164217;29;19990;-80
2023/10/14 02:09:57;;;;;;;;;;;;;;;18.05;94.75;97515.91;10153987;29;20087;-80
2023/10/14 02:14:59;;;;;;;;;;;;;;;18.24;94.69;97506.53;10166161;29;20427;-82
2023/10/14 02:20:08;;;;;;;;;;;;;;;18.31;93.07;97501.88;10164275;29;20012;-82
2023/10/14 02:25:08;;;;;;;;;;;;;;;18.38;93.29;97492.94;10146026;29;20017;-79
2023/10/14 02:30:12;;;;;;;;;;;;;;;18.39;91.10;97497.97;10166494;29;20038;-79
2023/10/14 02:35:15;;;;;;;;;;;;;;;18.49;91.16;97499.09;10173721;29;19983;-78
2023/10/14 02:40:23;;;;;;;;;;;;;;;18.48;90.93;97497.56;10160138;29;20023;-81
2023/10/14 02:45:24;;;;;;;;;;;;;;;18.42;91.22;97497.19;10159485;29;20010;-81
2023/10/14 02:50:25;;;;;;;;;;;;;;;18.37;91.99;97503.00;10158015;29;19927;-77
2023/10/14 02:55:25;;;;;;;;;;;;;;;18.46;91.67;97492.50;10143120;29;19927;-81
2023/10/14 03:00:31;;;;;;;;;;;;;;;18.45;92.70;97501.03;10164107;29;19930;-79
2023/10/14 03:05:33;;;;;;;;;;;;;;;18.45;100.00;97501.03;10156037;29;19931;-76
2023/10/14 03:10:39;;;;;;;;;;;;;;;18.49;93.14;97501.81;10156578;29;19927;-82
2023/10/14 03:15:47;;;;;;;;;;;;;;;17.45;99.16;97501.16;10138244;29;19927;-82
2023/10/14 03:21:00;;;;;;;;;;;;;;;18.30;94.87;97494.13;10164083;29;19931;-79
2023/10/14 03:26:13;;;;;;;;;;;;;;;18.52;95.24;97486.66;10177072;29;19926;-81
2023/10/14 03:31:19;;;;;;;;;;;;;;;17.60;100.00;97486.44;10201139;29;19926;-85
2023/10/14 03:36:23;;;;;;;;;;;;;;;17.95;98.51;97479.44;10210256;28;19926;-78
2023/10/14 03:41:29;;;;;;;;;;;;;;;18.37;96.96;97473.13;10210281;29;20022;-79
2023/10/14 03:46:40;;;;;;;;;;;;;;;18.48;96.75;97465.72;10209741;28;19936;-81
2023/10/14 03:51:41;;;;;;;;;;;;;;;18.46;100.00;97468.03;10238403;28;19942;-88
2023/10/14 03:56:45;;;;;;;;;;;;;;;18.65;98.68;97463.31;10262607;28;19910;-79
2023/10/14 04:01:45;;;;;;;;;;;;;;;-144.32;100.00;68061.97;10278822;28;19924;-79
2023/10/14 04:07:14;;;;;;;;;;;;;;;-144.32;100.00;68061.97;10255184;28;19950;-77
2023/10/14 04:17:52;;;;;;;;;;;;;;;-144.32;100.00;68061.97;10161138;29;20025;-83
2023/10/14 04:22:53;;;;;;;;;;;;;;;-144.32;100.00;68061.97;10209614;29;19927;-81
2023/10/14 04:28:18;;;;;;;;;;;;;;;-144.32;100.00;68061.97;10201598;29;20761;-79
2023/10/14 04:33:34;;;;;;;;;;;;;;;-144.32;100.00;68061.97;10184389;29;20025;-79
2023/10/14 04:38:43;;;;;;;;;;;;;;;-144.32;100.00;68061.97;10213227;29;19922;-85
2023/10/14 04:48:59;;;;;;;;;;;;;;;-144.32;100.00;68061.97;10212327;29;19923;-79
2023/10/14 04:54:00;;;;;;;;;;;;;;;-144.32;100.00;68061.97;10218988;29;20006;-81
2023/10/14 04:59:05;;;;;;;;;;;;;;;-144.32;100.00;68061.97;10199753;29;19950;-80
2023/10/14 05:04:09;;;;;;;;;;;;;;;-144.32;100.00;68061.97;10208773;29;19926;-84
2023/10/14 05:09:30;;;;;;;;;;;;;;;-144.32;100.00;68061.97;10225455;28;19937;-85
2023/10/14 05:14:37;;;;;;;;;;;;;;;-144.32;100.00;68061.97;10215430;29;19933;-78
2023/10/14 05:19:43;;;;;;;;;;;;;;;-144.32;100.00;68061.97;10234492;28;19951;-91
2023/10/14 05:24:52;;;;;;;;;;;;;;;-144.32;100.00;68061.97;10228460;29;20005;-77
2023/10/14 05:29:55;;;;;;;;;;;;;;;-144.32;100.00;68061.97;10220933;29;20057;-82
2023/10/14 05:34:56;;;;;;;;;;;;;;;-144.32;100.00;68061.97;10227635;28;20439;-83
2023/10/14 05:39:57;;;;;;;;;;;;;;;-144.32;100.00;68061.97;10180686;29;19930;-79
2023/10/14 05:45:11;;;;;;;;;;;;;;;-144.32;100.00;68061.97;10189653;28;19923;-84
2023/10/14 06:00:41;;;;;;;;;;;;;;;-144.32;100.00;68061.97;10289033;28;20311;-86
2023/10/14 06:10:58;;;;;;;;;;;;;;;-144.32;100.00;68061.97;10230677;28;19931;-81
2023/10/14 06:16:00;;;;;;;;;;;;;;;-144.32;100.00;68061.97;10213733;28;19923;-80
2023/10/14 06:21:01;;;;;;;;;;;;;;;-144.32;100.00;68061.97;10231858;28;20221;-81
2023/10/14 06:32:22;;;;;;;;;;;;;;;-144.32;100.00;68061.97;10212317;28;20365;-81
2023/10/14 06:37:24;;;;;;;;;;;;;;;-144.32;100.00;68061.97;10403191;23;19990;-80
2023/10/14 06:42:26;;;;;;;;;;;;;;;-144.32;100.00;68061.97;10261993;28;20129;-82
2023/10/14 06:47:29;;;;;;;;;;;;;;;-144.32;100.00;68061.97;10283362;28;19932;-81
2023/10/14 06:52:29;;;;;;;;;;;;;;;-144.32;100.00;68061.97;10280801;28;20024;-82
2023/10/14 06:57:32;;;;;;;;;;;;;;;-144.32;100.00;68061.97;10285670;28;19926;-83
2023/10/14 07:02:35;;;;;;;;;;;;;;;-144.32;100.00;68061.97;10303339;28;19922;-84
2023/10/14 07:07:37;;;;;;;;;;;;;;;-144.32;100.00;68061.97;10307756;28;20391;-82
2023/10/14 07:12:38;;;;;;;;;;;;;;;-144.32;100.00;68061.97;10317617;28;19928;-84
2023/10/14 07:22:52;;;;;;;;;;;;;;;-144.32;100.00;68061.97;10288794;28;19961;-82
2023/10/14 07:27:53;;;;;;;;;;;;;;;-144.32;100.00;68061.97;10285234;28;20674;-83
2023/10/14 07:32:55;;;;;;;;;;;;;;;-144.32;100.00;68061.97;10269744;28;19926;-86
2023/10/14 07:37:58;;;;;;;;;;;;;;;-144.32;100.00;68061.97;10256109;28;20356;-82
2023/10/14 07:43:13;;;;;;;;;;;;;;;-144.32;100.00;68061.97;10260699;28;19927;-84
2023/10/14 07:54:42;;;;;;;;;;;;;;;-144.32;100.00;68061.97;10260522;28;19922;-80
2023/10/14 08:28:27;;;;;;;;;;;;;;;-144.32;100.00;68061.97;10270514;28;19926;-84
2023/10/14 08:39:04;;;;;;;;;;;;;;;-144.32;100.00;68061.97;10312804;23;19933;-84
2023/10/14 08:56:03;;;;;;;;;;;;;;;-144.32;100.00;68061.97;10715412;23;19953;-85
2023/10/14 09:01:11;;;;;;;;;;;;;;;-144.32;100.00;68061.97;10296394;28;19929;-81
2023/10/14 09:06:12;;;;;;;;;;;;;;;-144.32;100.00;68061.97;10299500;28;19933;-85
2023/10/14 09:22:47;;;;;;;;;;;;;;;-144.32;100.00;68061.97;10344389;28;19910;-85
2023/10/14 09:51:48;;;;;;;;;;;;;;;-144.32;100.00;68061.97;9783046;28;15076904;-86
2023/10/14 10:02:19;;;;;;;;;;;;;;;-144.32;100.00;68061.97;10293145;28;20575;-86
2023/10/14 10:07:30;;;;;;;;;;;;;;;-144.32;100.00;68061.97;10299420;28;19922;-85
2023/10/14 10:12:31;;;;;;;;;;;;;;;-144.32;100.00;68061.97;10310751;28;20319;-82
2023/10/14 10:17:38;;;;;;;;;;;;;;;-144.32;100.00;68061.97;10308169;28;19937;-84
2023/10/14 10:22:50;;;;;;;;;;;;;;;-144.32;100.00;68061.97;10305990;28;19922;-81
2023/10/14 10:27:55;;;;;;;;;;;;;;;-144.32;100.00;68061.97;10307101;28;19922;-84
2023/10/14 10:38:23;;;;;;;;;;;;;;;-144.32;100.00;68061.97;10262811;28;19922;-85
2023/10/14 11:00:33;;;;;;;;;;;;;;;-144.32;100.00;68061.97;10227233;29;19933;-83
2023/10/14 11:16:14;;;;;;;;;;;;;;;-144.32;100.00;68061.97;10884055;23;19950;-84
2023/10/14 11:21:18;;;;;;;;;;;;;;;-144.32;100.00;68061.97;10251895;28;21274;-90
2023/10/14 11:26:19;;;;;;;;;;;;;;;-144.32;100.00;68061.97;10251124;28;19923;-84
2023/10/14 11:31:24;;;;;;;;;;;;;;;-144.32;100.00;68061.97;10229402;28;20299;-82
2023/10/14 11:42:01;;;;;;;;;;;;;;;-144.32;100.00;68061.97;10292943;28;19922;-88
2023/10/14 11:47:05;;;;;;;;;;;;;;;-144.32;100.00;68061.97;10245725;28;19958;-84
2023/10/14 11:52:06;;;;;;;;;;;;;;;-144.32;100.00;68061.97;10288420;28;19988;-85
2023/10/14 11:57:07;;;;;;;;;;;;;;;-144.32;100.00;68061.97;10303624;28;19925;-86
2023/10/14 12:02:11;;;;;;;;;;;;;;;-144.32;100.00;68061.97;10287538;28;20399;-85
2023/10/14 12:07:16;;;;;;;;;;;;;;;-144.32;100.00;68061.97;10289656;28;19981;-85
2023/10/14 12:12:16;;;;;;;;;;;;;;;-144.32;100.00;68061.97;10280973;28;19926;-91
2023/10/14 12:17:17;;;;;;;;;;;;;;;-144.32;100.00;68061.97;10282395;28;19997;-90
2023/10/14 12:33:07;;;;;;;;;;;;;;;-144.32;100.00;68061.97;10606671;23;19927;-85
2023/10/14 12:44:00;;;;;;;;;;;;;;;-144.32;100.00;68061.97;10238775;28;19910;-89
2023/10/14 12:48:50;;;;;;;;;;;;;;;-144.32;100.00;68061.97;10268541;29;19926;-81
2023/10/14 12:53:57;;;;;;;;;;;;;;;-144.32;100.00;68061.97;10283399;28;19910;-90
2023/10/14 12:58:58;;;;;;;;;;;;;;;-144.32;100.00;68061.97;10282894;28;19926;-85
2023/10/14 13:04:05;;;;;;;;;;;;;;;-144.32;100.00;68061.97;10281396;29;19911;-86
2023/10/14 13:09:28;;;;;;;;;;;;;;;-144.32;100.00;68061.97;10275060;28;19913;-86
2023/10/14 13:25:24;;;;;;;;;;;;;;;-144.32;100.00;68061.97;10297245;28;19923;-88
2023/10/14 13:30:25;;;;;;;;;;;;;;;-144.32;100.00;68061.97;10298036;28;19957;-83
2023/10/14 13:35:31;;;;;;;;;;;;;;;-144.32;100.00;68061.97;10210450;29;20002;-83
2023/10/14 13:40:33;;;;;;;;;;;;;;;-144.32;100.00;68061.97;10208718;29;19990;-87
2023/10/14 13:45:34;;;;;;;;;;;;;;;-144.32;100.00;68061.97;10222955;28;20810;-90
2023/10/14 13:56:11;;;;;;;;;;;;;;;-144.32;100.00;68061.97;10238116;29;19922;-87
2023/10/14 14:58:36;;;;;;;;;;;;;;;-144.32;100.00;68061.97;10302017;28;20315;-80
2023/10/14 15:03:37;;;;;;;;;;;;;;;-144.32;100.00;68061.97;10270494;28;19932;-77
2023/10/14 15:08:37;;;;;;;;;;;;;;;-144.32;100.00;68061.97;10274996;28;19926;-79
2023/10/14 15:13:37;;;;;;;;;;;;;;;-144.32;100.00;68061.97;10268608;28;20600;-81
2023/10/14 15:18:41;;;;;;;;;;;;;;;-144.32;100.00;68061.97;10255155;28;20339;-80
2023/10/14 15:57:09;;;;;;;;;;;;;;;-144.32;100.00;68061.97;10584910;23;19923;-84
2023/10/14 16:20:02;;;;;;;;;;;;;;;-144.32;100.00;68061.97;10956822;23;19973;-85
2023/10/14 16:25:05;;;;;;;;;;;;;;;-144.32;100.00;68061.97;10279438;23;20025;-85
2023/10/14 16:30:14;;;;;;;;;;;;;;;-144.32;100.00;68061.97;10198289;29;19911;-83
2023/10/14 16:40:47;;;;;;;;;;;;;;;-144.32;100.00;68061.97;10379827;23;19926;-83
2023/10/14 16:45:55;;;;;;;;;;;;;;;-144.32;100.00;68061.97;10264622;28;19926;-81
2023/10/14 16:50:56;;;;;;;;;;;;;;;-144.32;100.00;68061.97;10259009;28;19933;-82
2023/10/14 16:55:56;;;;;;;;;;;;;;;-144.32;100.00;68061.97;10249385;28;19927;-85
2023/10/14 17:06:14;;;;;;;;;;;;;;;-144.32;100.00;68061.97;10258632;28;19923;-83
2023/10/14 17:11:15;;;;;;;;;;;;;;;-144.32;100.00;68061.97;10246905;29;19942;-87
2023/10/14 18:20:58;;;;;;;;;;;;;;;-144.32;100.00;68061.97;10673300;23;19934;-84
2023/10/14 18:26:12;;;;;;;;;;;;;;;-144.32;100.00;68061.97;10220417;29;19911;-86
2023/10/14 18:55:17;;;;;;;;;;;;;;;-144.32;100.00;68061.97;10465764;23;19922;-82
2023/10/14 19:00:18;;;;;;;;;;;;;;;-144.32;100.00;68061.97;10381366;23;19981;-86
2023/10/14 19:05:20;;;;;;;;;;;;;;;-144.32;100.00;68061.97;10267528;28;19936;-87
2023/10/14 19:10:21;;;;;;;;;;;;;;;-144.32;100.00;68061.97;10288669;28;19926;-90
2023/10/14 19:15:22;;;;;;;;;;;;;;;-144.32;100.00;68061.97;10292528;28;20049;-88
2023/10/14 19:20:24;;;;;;;;;;;;;;;-144.32;100.00;68061.97;10283506;28;19954;-88
2023/10/14 19:25:26;;;;;;;;;;;;;;;-144.32;100.00;68061.97;10295288;28;19992;-88
2023/10/14 19:30:29;;;;;;;;;;;;;;;-144.32;100.00;68061.97;10304402;28;20016;-88
2023/10/14 19:35:31;;;;;;;;;;;;;;;-144.32;100.00;68061.97;10298038;28;19997;-89
2023/10/14 19:45:54;;;;;;;;;;;;;;;-144.32;100.00;68061.97;10357464;23;19926;-88
2023/10/14 19:51:08;;;;;;;;;;;;;;;-144.32;100.00;68061.97;10316305;28;19922;-89
2023/10/14 19:56:10;;;;;;;;;;;;;;;-144.32;100.00;68061.97;10290253;28;19932;-87
2023/10/14 20:01:14;;;;;;;;;;;;;;;-144.32;100.00;68061.97;10284967;28;20485;-88
2023/10/14 20:06:16;;;;;;;;;;;;;;;-144.32;100.00;68061.97;10301469;28;19988;-85
2023/10/14 20:11:19;;;;;;;;;;;;;;;-144.32;100.00;68061.97;10576681;23;20018;-84
2023/10/14 20:16:21;;;;;;;;;;;;;;;-144.32;100.00;68061.97;10538939;23;20324;-85
2023/10/14 20:21:23;;;;;;;;;;;;;;;-144.32;100.00;68061.97;10300421;28;19922;-85
2023/10/14 20:26:25;;;;;;;;;;;;;;;-144.32;100.00;68061.97;10325238;28;20010;-86
2023/10/14 20:31:27;;;;;;;;;;;;;;;-144.32;100.00;68061.97;10694786;23;19970;-84
2023/10/14 20:36:42;;;;;;;;;;;;;;;-144.32;100.00;68061.97;10220026;28;19930;-86
2023/10/14 20:41:44;;;;;;;;;;;;;;;-144.32;100.00;68061.97;10202254;28;19998;-87
2023/10/14 20:46:44;;;;;;;;;;;;;;;-144.32;100.00;68061.97;10225320;28;20411;-89
2023/10/14 20:51:46;;;;;;;;;;;;;;;-144.32;100.00;68061.97;10385337;23;19925;-91
2023/10/14 20:56:50;;;;;;;;;;;;;;;-144.32;100.00;68061.97;10447521;23;19931;-89
2023/10/14 21:01:52;;;;;;;;;;;;;;;-144.32;100.00;68061.97;10196054;29;19926;-88
2023/10/14 21:06:52;;;;;;;;;;;;;;;-144.32;100.00;68061.97;10233993;28;19926;-86
2023/10/14 21:11:53;;;;;;;;;;;;;;;-144.32;100.00;68061.97;10232687;28;19942;-89
2023/10/14 21:16:59;;;;;;;;;;;;;;;-144.32;100.00;68061.97;10337048;23;19910;-89
2023/10/14 21:27:23;;;;;;;;;;;;;;;-144.32;100.00;68061.97;10472481;23;20041;-90
2023/10/14 21:32:23;;;;;;;;;;;;;;;-144.32;100.00;68061.97;10283285;28;19926;-89
2023/10/14 21:37:29;;;;;;;;;;;;;;;-144.32;100.00;68061.97;10368612;23;19918;-93
2023/10/14 21:42:59;;;;;;;;;;;;;;;-144.32;100.00;68061.97;10244170;29;19925;-92
2023/10/14 21:48:01;;;;;;;;;;;;;;;-144.32;100.00;68061.97;10206376;29;19926;-87
2023/10/14 21:53:05;;;;;;;;;;;;;;;-144.32;100.00;68061.97;10252768;29;19926;-90
2023/10/14 21:58:08;;;;;;;;;;;;;;;-144.32;100.00;68061.97;10241375;29;19926;-89
2023/10/14 22:03:11;;;;;;;;;;;;;;;-144.32;100.00;68061.97;10245192;28;19930;-88
2023/10/14 22:08:17;;;;;;;;;;;;;;;-144.32;100.00;68061.97;10275297;28;19911;-90
2023/10/14 22:29:42;;;;;;;;;;;;;;;-144.32;100.00;68061.97;10683836;23;20497;-86
2023/10/14 22:34:46;;;;;;;;;;;;;;;-144.32;100.00;68061.97;10171680;29;19931;-89
2023/10/14 22:45:23;;;;;;;;;;;;;;;-144.32;100.00;68061.97;10169799;29;20307;-92
2023/10/14 22:50:27;;;;;;;;;;;;;;;-144.32;100.00;68061.97;10395631;23;19927;-90
2023/10/14 22:55:31;;;;;;;;;;;;;;;-144.32;100.00;68061.97;10217804;29;19927;-88
2023/10/14 23:00:39;;;;;;;;;;;;;;;-144.32;100.00;68061.97;10241809;28;19926;-87
2023/10/14 23:05:43;;;;;;;;;;;;;;;-144.32;100.00;68061.97;10243927;29;19931;-86
2023/10/14 23:10:45;;;;;;;;;;;;;;;-144.32;100.00;68061.97;10220313;29;19927;-84
2023/10/14 23:15:51;;;;;;;;;;;;;;;-144.32;100.00;68061.97;10190956;29;20577;-83
2023/10/14 23:20:51;;;;;;;;;;;;;;;-144.32;100.00;68061.97;10190131;28;20628;-81
2023/10/14 23:25:52;;;;;;;;;;;;;;;-144.32;100.00;68061.97;10164211;29;19934;-85
2023/10/14 23:30:55;;;;;;;;;;;;;;;-144.32;100.00;68061.97;10188638;29;20029;-83
2023/10/14 23:35:55;;;;;;;;;;;;;;;-144.32;100.00;68061.97;10203624;28;19933;-83
2023/10/14 23:40:56;;;;;;;;;;;;;;;-144.32;100.00;68061.97;10163408;29;19934;-82
2023/10/14 23:45:56;;;;;;;;;;;;;;;-144.32;100.00;68061.97;10164562;29;19923;-88
2023/10/14 23:50:57;;;;;;;;;;;;;;;-144.32;100.00;68061.97;10185994;29;19931;-86
2023/10/14 23:55:58;;;;;;;;;;;;;;;-144.32;100.00;68061.97;10204093;29;20031;-88
